createdAt,value
2022-12-27T00:01:43.446Z,19.33
2022-12-27T00:04:28.878Z,11.85
2022-12-27T00:07:14.581Z,21.17
2022-12-27T00:10:00.330Z,12.57
2022-12-27T00:12:45.865Z,19.65
2022-12-27T00:15:32.990Z,20.20
2022-12-27T00:18:18.545Z,22.02
2022-12-27T00:21:05.381Z,49.22
2022-12-27T00:23:54.690Z,31.05
2022-12-27T00:26:41.068Z,14.50
2022-12-27T00:29:26.702Z,18.55
2022-12-27T00:32:12.604Z,9.82
2022-12-27T00:34:57.955Z,14.68
2022-12-27T00:37:43.463Z,8.45
2022-12-27T00:40:29.029Z,12.05
2022-12-27T00:43:14.550Z,11.73
2022-12-27T00:46:00.108Z,7.13
2022-12-27T00:48:47.352Z,10.93
2022-12-27T00:51:32.727Z,8.25
2022-12-27T00:54:18.048Z,6.65
2022-12-27T00:57:04.336Z,7.90
2022-12-27T00:59:49.630Z,8.13
2022-12-27T01:02:34.994Z,7.65
2022-12-27T01:05:20.249Z,6.50
2022-12-27T01:08:06.045Z,7.22
2022-12-27T01:10:51.766Z,13.00
2022-12-27T01:13:37.925Z,6.90
2022-12-27T01:16:24.951Z,7.97
2022-12-27T01:19:10.327Z,8.63
2022-12-27T01:21:55.748Z,7.00
2022-12-27T01:24:40.939Z,11.13
2022-12-27T01:27:26.276Z,5.75
2022-12-27T01:30:12.305Z,10.40
2022-12-27T01:32:58.186Z,6.75
2022-12-27T01:35:43.924Z,6.47
2022-12-27T01:38:29.129Z,8.00
2022-12-27T01:41:38.691Z,7.05
2022-12-27T01:44:39.881Z,6.03
2022-12-27T01:47:35.745Z,8.55
2022-12-27T01:50:27.498Z,7.10
2022-12-27T01:53:19.107Z,8.73
2022-12-27T01:56:09.775Z,7.03
2022-12-27T01:59:01.506Z,5.10
2022-12-27T02:01:48.762Z,5.45
2022-12-27T02:04:34.873Z,5.72
2022-12-27T02:07:27.124Z,7.32
2022-12-27T02:10:12.535Z,8.80
2022-12-27T02:12:59.691Z,7.18
2022-12-27T02:15:46.820Z,6.20
2022-12-27T02:18:32.243Z,7.07
2022-12-27T02:21:59.515Z,8.15
2022-12-27T02:25:17.305Z,8.07
2022-12-27T02:28:44.719Z,9.45
2022-12-27T02:31:39.119Z,4.18
2022-12-27T02:34:30.628Z,8.82
2022-12-27T02:37:16.258Z,13.38
2022-12-27T02:40:31.321Z,7.97
2022-12-27T02:43:35.648Z,6.40
2022-12-27T02:46:42.729Z,5.55
2022-12-27T02:49:55.430Z,5.50
2022-12-27T02:53:08.380Z,9.98
2022-12-27T02:56:50.164Z,6.47
2022-12-27T03:00:07.917Z,3.05
2022-12-27T03:03:29.139Z,4.53
2022-12-27T03:06:41.598Z,7.68
2022-12-27T03:10:07.298Z,4.93
2022-12-27T03:13:42.298Z,4.80
2022-12-27T03:16:57.785Z,7.45
2022-12-27T03:20:10.167Z,7.40
2022-12-27T03:23:16.424Z,3.90
2022-12-27T03:26:05.605Z,3.88
2022-12-27T03:29:11.065Z,6.32
2022-12-27T03:32:20.305Z,4.80
2022-12-27T03:35:19.757Z,6.15
2022-12-27T03:38:07.594Z,2.42
2022-12-27T03:41:19.111Z,4.45
2022-12-27T03:44:24.328Z,4.15
2022-12-27T03:47:17.368Z,2.50
2022-12-27T03:50:26.000Z,4.15
2022-12-27T03:53:23.186Z,2.17
2022-12-27T03:56:10.087Z,2.33
2022-12-27T03:58:57.598Z,1.73
2022-12-27T04:01:43.024Z,7.10
2022-12-27T04:04:28.848Z,4.97
2022-12-27T04:07:15.260Z,6.18
2022-12-27T04:10:19.119Z,3.72
2022-12-27T04:13:23.259Z,4.30
2022-12-27T04:16:27.251Z,3.45
2022-12-27T04:19:31.417Z,3.42
2022-12-27T04:22:35.631Z,6.93
2022-12-27T04:25:39.787Z,2.88
2022-12-27T04:28:43.821Z,1.92
2022-12-27T04:31:48.070Z,7.72
2022-12-27T04:34:43.706Z,5.78
2022-12-27T04:37:29.344Z,4.90
2022-12-27T04:40:33.162Z,7.35
2022-12-27T04:43:37.519Z,3.38
2022-12-27T04:46:43.667Z,0.70
2022-12-27T04:49:47.700Z,2.08
2022-12-27T04:52:53.039Z,4.85
2022-12-27T04:55:38.529Z,4.47
2022-12-27T04:58:24.402Z,2.47
2022-12-27T05:01:28.220Z,1.25
2022-12-27T05:04:13.870Z,14.40
2022-12-27T05:07:20.042Z,2.97
2022-12-27T05:10:25.064Z,8.68
2022-12-27T05:13:31.239Z,1.40
2022-12-27T05:16:17.015Z,5.75
2022-12-27T05:19:02.781Z,3.00
2022-12-27T05:22:06.899Z,4.35
2022-12-27T05:25:11.293Z,4.63
2022-12-27T05:27:56.810Z,4.63
2022-12-27T05:30:44.591Z,3.28
2022-12-27T05:33:33.143Z,1.30
2022-12-27T05:36:19.327Z,4.63
2022-12-27T05:39:04.840Z,2.20
2022-12-27T05:41:50.267Z,2.85
2022-12-27T05:44:35.611Z,8.60
2022-12-27T05:47:20.937Z,1.95
2022-12-27T05:50:06.729Z,3.75
2022-12-27T05:52:51.953Z,10.75
2022-12-27T05:55:38.031Z,7.55
2022-12-27T05:58:24.341Z,4.00
2022-12-27T06:01:12.840Z,5.72
2022-12-27T06:03:58.122Z,2.47
2022-12-27T06:06:43.333Z,4.20
2022-12-27T06:09:28.697Z,5.35
2022-12-27T06:12:14.115Z,11.13
2022-12-27T06:14:59.798Z,3.47
2022-12-27T06:17:45.350Z,4.85
2022-12-27T06:20:30.766Z,3.53
2022-12-27T06:23:16.851Z,4.22
2022-12-27T06:26:10.936Z,5.38
2022-12-27T06:28:58.293Z,2.92
2022-12-27T06:31:43.446Z,3.50
2022-12-27T06:34:28.941Z,2.95
2022-12-27T06:37:14.864Z,2.63
2022-12-27T06:40:00.135Z,5.28
2022-12-27T06:42:45.720Z,4.97
2022-12-27T06:45:31.164Z,6.63
2022-12-27T06:48:16.611Z,3.30
2022-12-27T06:51:10.710Z,7.50
2022-12-27T06:53:56.470Z,4.72
2022-12-27T06:56:41.754Z,2.25
2022-12-27T06:59:27.163Z,3.15
2022-12-27T07:02:12.425Z,1.92
2022-12-27T07:04:58.174Z,2.67
2022-12-27T07:07:43.530Z,2.40
2022-12-27T07:10:29.122Z,1.33
2022-12-27T07:13:14.664Z,4.72
2022-12-27T07:15:59.933Z,2.15
2022-12-27T07:18:45.629Z,2.50
2022-12-27T07:21:31.695Z,3.85
2022-12-27T07:24:17.165Z,2.65
2022-12-27T07:27:02.676Z,2.70
2022-12-27T07:29:48.255Z,7.25
2022-12-27T07:32:33.792Z,3.65
2022-12-27T07:35:19.407Z,6.43
2022-12-27T07:38:04.788Z,12.55
2022-12-27T07:40:50.372Z,8.77
2022-12-27T07:43:36.315Z,8.57
2022-12-27T07:46:24.497Z,2.60
2022-12-27T07:49:17.414Z,4.55
2022-12-27T07:52:04.347Z,2.85
2022-12-27T07:54:50.121Z,3.10
2022-12-27T07:57:35.847Z,1.45
2022-12-27T08:00:21.604Z,3.15
2022-12-27T08:03:07.228Z,2.72
2022-12-27T08:05:53.288Z,1.05
2022-12-27T08:08:45.140Z,7.55
2022-12-27T08:11:31.367Z,1.20
2022-12-27T08:14:16.873Z,1.65
2022-12-27T08:17:12.550Z,1.45
2022-12-27T08:19:58.351Z,0.68
2022-12-27T08:22:43.787Z,2.13
2022-12-27T08:25:29.857Z,0.20
2022-12-27T08:28:17.281Z,2.03
2022-12-27T08:31:10.213Z,0.25
2022-12-27T08:33:58.650Z,1.90
2022-12-27T08:36:55.284Z,1.25
2022-12-27T08:39:42.257Z,0.20
2022-12-27T08:42:27.843Z,0.15
2022-12-27T08:45:13.667Z,0.17
2022-12-27T08:48:00.330Z,0.25
2022-12-27T08:50:45.708Z,0.13
2022-12-27T08:53:31.325Z,0.20
2022-12-27T08:56:18.255Z,0.25
2022-12-27T08:59:03.985Z,0.10
2022-12-27T09:01:49.512Z,0.10
2022-12-27T09:04:35.062Z,0.10
2022-12-27T09:07:20.340Z,0.40
2022-12-27T09:10:06.739Z,0.20
2022-12-27T09:12:52.638Z,0.28
2022-12-27T09:15:38.760Z,0.30
2022-12-27T09:18:24.381Z,0.93
2022-12-27T09:21:13.087Z,2.03
2022-12-27T09:23:59.616Z,0.98
2022-12-27T09:26:44.872Z,0.10
2022-12-27T09:29:30.494Z,0.93
2022-12-27T09:32:16.198Z,0.45
2022-12-27T09:35:02.253Z,0.30
2022-12-27T09:37:47.857Z,0.38
2022-12-27T09:40:33.207Z,1.27
2022-12-27T09:43:27.388Z,0.20
2022-12-27T09:46:26.640Z,3.15
2022-12-27T09:49:17.910Z,0.85
2022-12-27T09:52:10.529Z,0.32
2022-12-27T09:55:13.999Z,0.43
2022-12-27T09:58:13.973Z,0.10
2022-12-27T10:01:00.534Z,0.20
2022-12-27T10:03:46.224Z,0.55
2022-12-27T10:06:49.653Z,0.30
2022-12-27T10:09:46.819Z,0.28
2022-12-27T10:13:08.461Z,0.28
2022-12-27T10:16:30.029Z,0.15
2022-12-27T10:19:41.403Z,0.93
2022-12-27T10:22:46.264Z,0.30
2022-12-27T10:25:35.116Z,0.28
2022-12-27T10:28:29.075Z,0.93
2022-12-27T10:31:18.141Z,0.40
2022-12-27T10:34:07.582Z,1.88
2022-12-27T10:36:55.919Z,2.00
2022-12-27T10:39:42.522Z,0.55
2022-12-27T10:42:41.881Z,0.73
2022-12-27T10:45:42.768Z,0.63
2022-12-27T10:48:47.383Z,4.20
2022-12-27T10:51:42.544Z,1.45
2022-12-27T10:54:31.244Z,1.00
2022-12-27T10:57:37.000Z,0.57
2022-12-27T11:00:23.447Z,0.98
2022-12-27T11:03:19.263Z,0.35
2022-12-27T11:06:17.670Z,2.58
2022-12-27T11:09:26.958Z,1.45
2022-12-27T11:12:18.675Z,0.50
2022-12-27T11:15:19.028Z,0.55
2022-12-27T11:18:12.260Z,1.75
2022-12-27T11:20:59.461Z,1.95
2022-12-27T11:23:49.623Z,2.78
2022-12-27T11:26:55.271Z,0.40
2022-12-27T11:29:45.766Z,0.40
2022-12-27T11:32:31.792Z,1.02
2022-12-27T11:35:20.684Z,0.75
2022-12-27T11:38:06.107Z,0.82
2022-12-27T11:41:03.474Z,0.93
2022-12-27T11:43:59.184Z,0.57
2022-12-27T11:46:58.778Z,5.30
2022-12-27T11:49:56.397Z,3.30
2022-12-27T11:52:45.032Z,1.08
2022-12-27T11:55:53.750Z,0.32
2022-12-27T11:58:59.801Z,1.70
2022-12-27T12:01:51.368Z,0.30
2022-12-27T12:04:55.813Z,1.08
2022-12-27T12:07:45.022Z,1.25
2022-12-27T12:10:57.511Z,1.67
2022-12-27T12:13:52.418Z,0.70
2022-12-27T12:16:56.525Z,3.72
2022-12-27T12:19:59.157Z,1.85
2022-12-27T12:23:20.273Z,0.63
2022-12-27T12:26:12.781Z,0.63
2022-12-27T12:29:34.077Z,1.08
2022-12-27T12:32:53.344Z,1.00
2022-12-27T12:35:57.396Z,2.33
2022-12-27T12:38:57.702Z,3.15
2022-12-27T12:42:12.341Z,2.55
2022-12-27T12:45:06.651Z,1.00
2022-12-27T12:48:28.742Z,2.63
2022-12-27T12:51:38.277Z,1.67
2022-12-27T12:54:51.788Z,0.95
2022-12-27T12:57:40.208Z,0.52
2022-12-27T13:00:28.968Z,1.60
2022-12-27T13:03:46.547Z,2.28
2022-12-27T13:07:01.049Z,6.78
2022-12-27T13:10:20.715Z,1.13
2022-12-27T13:13:30.991Z,0.85
2022-12-27T13:16:38.478Z,1.00
2022-12-27T13:19:47.179Z,1.58
2022-12-27T13:22:44.641Z,2.20
2022-12-27T13:26:00.810Z,0.65
2022-12-27T13:28:52.760Z,1.10
2022-12-27T13:32:13.668Z,1.60
2022-12-27T13:35:29.670Z,4.13
2022-12-27T13:38:26.780Z,3.00
2022-12-27T13:41:30.142Z,2.45
2022-12-27T13:44:36.655Z,2.22
2022-12-27T13:47:39.782Z,2.22
2022-12-27T13:50:48.709Z,3.22
2022-12-27T13:53:52.386Z,4.55
2022-12-27T13:57:15.399Z,7.45
2022-12-27T14:00:04.496Z,2.05
2022-12-27T14:03:13.701Z,4.13
2022-12-27T14:06:17.651Z,3.75
2022-12-27T14:09:30.801Z,5.05
2022-12-27T14:12:34.531Z,2.40
2022-12-27T14:15:24.636Z,3.75
2022-12-27T14:18:27.418Z,2.08
2022-12-27T14:21:40.157Z,5.15
2022-12-27T14:24:37.758Z,3.10
2022-12-27T14:27:44.953Z,7.35
2022-12-27T14:30:30.531Z,4.22
2022-12-27T14:33:53.419Z,6.22
2022-12-27T14:37:09.923Z,9.77
2022-12-27T14:40:29.912Z,19.30
2022-12-27T14:43:49.198Z,24.65
2022-12-27T14:47:13.879Z,21.70
2022-12-27T14:50:30.540Z,13.05
2022-12-27T14:53:31.477Z,12.40
2022-12-27T14:56:19.662Z,14.13
2022-12-27T14:59:41.482Z,24.15
2022-12-27T15:03:01.870Z,12.10
2022-12-27T15:06:46.312Z,9.45
2022-12-27T15:10:05.764Z,12.88
2022-12-27T15:13:03.727Z,11.00
2022-12-27T15:15:56.955Z,8.80
2022-12-27T15:19:06.557Z,11.13
2022-12-27T15:22:16.562Z,16.15
2022-12-27T15:25:20.764Z,8.10
2022-12-27T15:28:24.539Z,19.23
2022-12-27T15:31:20.597Z,11.40
2022-12-27T15:34:33.189Z,10.77
2022-12-27T15:37:47.835Z,13.30
2022-12-27T15:40:33.192Z,14.07
2022-12-27T15:43:50.271Z,14.15
2022-12-27T15:46:58.019Z,14.35
2022-12-27T15:50:28.665Z,19.58
2022-12-27T15:53:32.717Z,19.30
2022-12-27T15:56:32.557Z,9.60
2022-12-27T15:59:41.569Z,14.52
2022-12-27T16:02:48.995Z,33.38
2022-12-27T16:05:49.442Z,17.08
2022-12-27T16:08:40.217Z,19.05
2022-12-27T16:12:07.823Z,15.63
2022-12-27T16:15:31.860Z,15.23
2022-12-27T16:18:37.067Z,11.23
2022-12-27T16:21:25.342Z,14.23
2022-12-27T16:24:19.606Z,22.08
2022-12-27T16:27:05.698Z,17.52
2022-12-27T16:29:51.303Z,32.85
2022-12-27T16:32:37.201Z,22.27
2022-12-27T16:35:23.417Z,11.68
2022-12-27T16:38:22.129Z,11.52
2022-12-27T16:41:17.254Z,16.95
2022-12-27T16:44:02.497Z,6.18
2022-12-27T16:47:02.329Z,17.63
2022-12-27T16:50:06.279Z,17.02
2022-12-27T16:53:00.971Z,47.47
2022-12-27T16:56:04.699Z,25.15
2022-12-27T16:58:50.665Z,19.50
2022-12-27T17:01:36.114Z,9.52
2022-12-27T17:04:49.710Z,13.90
2022-12-27T17:07:44.640Z,21.60
2022-12-27T17:10:35.195Z,16.63
2022-12-27T17:13:47.668Z,16.48
2022-12-27T17:16:42.956Z,19.00
2022-12-27T17:20:05.720Z,14.77
2022-12-27T17:25:55.113Z,20.75
2022-12-27T17:29:01.542Z,21.58
2022-12-27T17:32:00.542Z,11.23
2022-12-27T17:35:07.469Z,14.50
2022-12-27T17:38:05.436Z,13.38
2022-12-27T17:41:11.987Z,14.88
2022-12-27T17:44:40.879Z,26.05
2022-12-27T17:48:01.765Z,18.98
2022-12-27T17:50:48.253Z,23.95
2022-12-27T17:53:52.166Z,23.50
2022-12-27T17:57:05.640Z,15.95
2022-12-27T17:59:51.302Z,21.42
2022-12-27T18:02:40.194Z,18.83
2022-12-27T18:05:33.593Z,11.38
2022-12-27T18:08:26.172Z,20.73
2022-12-27T18:11:15.724Z,14.90
2022-12-27T18:14:01.963Z,14.27
2022-12-27T18:16:47.884Z,26.67
2022-12-27T18:19:33.573Z,18.85
2022-12-27T18:22:20.213Z,19.85
2022-12-27T18:25:24.657Z,25.27
2022-12-27T18:28:21.254Z,20.67
2022-12-27T18:31:47.767Z,20.50
2022-12-27T18:35:00.581Z,12.52
2022-12-27T18:37:46.469Z,13.93
2022-12-27T18:40:34.506Z,9.02
2022-12-27T18:43:20.143Z,18.73
2022-12-27T18:46:05.982Z,11.55
2022-12-27T18:48:53.146Z,22.20
2022-12-27T18:51:39.849Z,13.35
2022-12-27T18:54:28.204Z,11.52
2022-12-27T18:57:46.484Z,20.40
2022-12-27T19:00:32.623Z,20.20
2022-12-27T19:03:20.682Z,20.05
2022-12-27T19:06:13.650Z,16.02
2022-12-27T19:08:59.140Z,16.85
2022-12-27T19:12:23.312Z,17.88
2022-12-27T19:15:19.269Z,21.05
2022-12-27T19:18:17.722Z,12.35
2022-12-27T19:21:06.877Z,16.33
2022-12-27T19:23:52.590Z,10.25
2022-12-27T19:26:38.032Z,14.60
2022-12-27T19:29:27.334Z,16.38
2022-12-27T19:32:16.929Z,18.73
2022-12-27T19:35:04.155Z,13.93
2022-12-27T19:37:49.735Z,18.70
2022-12-27T19:40:35.175Z,21.70
2022-12-27T19:43:21.063Z,33.25
2022-12-27T19:46:06.873Z,24.88
2022-12-27T19:49:31.836Z,27.42
2022-12-27T19:51:58.760Z,33.40
2022-12-27T19:54:44.222Z,24.08
2022-12-27T19:57:30.502Z,17.58
2022-12-27T20:00:17.664Z,29.65
2022-12-27T20:03:04.624Z,28.80
2022-12-27T20:06:12.699Z,29.85
2022-12-27T20:08:56.692Z,24.48
2022-12-27T20:11:42.129Z,21.77
2022-12-27T20:14:27.545Z,30.83
2022-12-27T20:17:13.137Z,19.67
2022-12-27T20:19:58.913Z,27.02
2022-12-27T20:22:44.552Z,26.90
2022-12-27T20:25:32.756Z,32.85
2022-12-27T20:28:19.083Z,12.27
2022-12-27T20:31:08.754Z,15.98
2022-12-27T20:33:56.267Z,25.02
2022-12-27T20:36:42.250Z,16.38
2022-12-27T20:39:27.631Z,20.10
2022-12-27T20:42:12.971Z,17.27
2022-12-27T20:44:58.277Z,22.88
2022-12-27T20:47:43.849Z,20.73
2022-12-27T20:50:29.452Z,22.92
2022-12-27T20:53:14.780Z,18.35
2022-12-27T20:56:01.418Z,15.73
2022-12-27T20:58:47.152Z,16.05
2022-12-27T21:01:32.632Z,19.77
2022-12-27T21:04:18.385Z,19.25
2022-12-27T21:07:03.714Z,19.67
2022-12-27T21:09:49.226Z,23.25
2022-12-27T21:12:35.653Z,24.17
2022-12-27T21:15:21.132Z,19.63
2022-12-27T21:18:06.378Z,14.40
2022-12-27T21:20:51.855Z,25.38
2022-12-27T21:23:38.443Z,17.98
2022-12-27T21:26:36.218Z,22.35
2022-12-27T21:29:21.621Z,10.40
2022-12-27T21:32:07.011Z,17.98
2022-12-27T21:34:52.472Z,14.88
2022-12-27T21:37:37.866Z,18.13
2022-12-27T21:40:23.224Z,19.67
2022-12-27T21:43:08.383Z,15.60
2022-12-27T21:45:53.945Z,27.00
2022-12-27T21:48:39.403Z,14.38
2022-12-27T21:51:26.511Z,22.75
2022-12-27T21:54:13.990Z,24.40
2022-12-27T21:56:59.924Z,20.40
2022-12-27T21:59:45.199Z,17.42
2022-12-27T22:02:30.779Z,18.73
2022-12-27T22:05:16.989Z,17.25
2022-12-27T22:08:02.351Z,16.13
2022-12-27T22:10:55.849Z,14.65
2022-12-27T22:13:42.219Z,26.08
2022-12-27T22:16:38.730Z,21.50
2022-12-27T22:19:24.402Z,14.70
2022-12-27T22:22:09.627Z,23.00
2022-12-27T22:24:55.094Z,31.25
2022-12-27T22:27:40.519Z,16.25
2022-12-27T22:30:26.185Z,20.95
2022-12-27T22:33:11.558Z,27.40
2022-12-27T22:36:06.022Z,18.98
2022-12-27T22:38:53.707Z,20.83
2022-12-27T22:41:39.104Z,12.52
2022-12-27T22:44:24.546Z,17.27
2022-12-27T22:47:27.203Z,17.05
2022-12-27T22:50:13.814Z,18.42
2022-12-27T22:52:58.973Z,18.77
2022-12-27T22:55:45.559Z,23.48
2022-12-27T22:58:31.995Z,15.18
2022-12-27T23:01:22.346Z,14.32
2022-12-27T23:04:10.887Z,30.33
2022-12-27T23:06:56.358Z,17.67
2022-12-27T23:09:43.609Z,13.10
2022-12-27T23:12:29.609Z,16.13
2022-12-27T23:15:15.080Z,21.95
2022-12-27T23:18:02.249Z,12.13
2022-12-27T23:21:20.804Z,12.10
2022-12-27T23:23:53.306Z,14.60
2022-12-27T23:26:39.819Z,20.10
2022-12-27T23:29:25.570Z,20.80
2022-12-27T23:32:10.939Z,17.30
2022-12-27T23:34:56.468Z,9.77
2022-12-27T23:37:41.705Z,23.55
2022-12-27T23:40:27.135Z,20.13
2022-12-27T23:43:50.615Z,15.80
2022-12-27T23:46:29.457Z,13.10
2022-12-27T23:49:15.166Z,25.70
2022-12-27T23:52:00.798Z,30.25
2022-12-27T23:54:46.318Z,13.32
2022-12-27T23:57:31.777Z,17.17
